createdAt,value
2022-12-18T00:01:00.864Z,7.50
2022-12-18T00:04:09.644Z,16.43
2022-12-18T00:07:12.740Z,18.50
2022-12-18T00:10:15.792Z,8.77
2022-12-18T00:13:21.882Z,18.10
2022-12-18T00:16:26.606Z,28.50
2022-12-18T00:19:29.792Z,23.53
2022-12-18T00:22:32.991Z,28.77
2022-12-18T00:25:37.835Z,19.70
2022-12-18T00:28:41.410Z,29.97
2022-12-18T00:31:45.316Z,30.20
2022-12-18T00:34:48.356Z,29.17
2022-12-18T00:37:51.918Z,18.05
2022-12-18T00:40:55.128Z,17.13
2022-12-18T00:43:58.234Z,24.15
2022-12-18T00:47:01.376Z,15.43
2022-12-18T00:50:05.047Z,14.05
2022-12-18T00:53:08.203Z,8.30
2022-12-18T00:56:11.276Z,23.13
2022-12-18T00:59:14.316Z,8.13
2022-12-18T01:02:18.041Z,16.35
2022-12-18T01:08:24.372Z,20.30
2022-12-18T01:11:27.848Z,64.25
2022-12-18T01:14:30.912Z,40.42
2022-12-18T01:17:34.713Z,13.77
2022-12-18T01:23:42.728Z,11.30
2022-12-18T01:26:45.958Z,10.75
2022-12-18T01:29:51.632Z,6.17
2022-12-18T01:32:56.044Z,6.73
2022-12-18T01:35:59.160Z,46.42
2022-12-18T01:39:05.945Z,30.90
2022-12-18T01:42:17.309Z,54.73
2022-12-18T01:45:20.632Z,67.27
2022-12-18T01:48:23.713Z,20.98
2022-12-18T01:51:28.762Z,14.55
2022-12-18T01:54:31.906Z,20.27
2022-12-18T01:57:35.484Z,15.75
2022-12-18T02:00:39.072Z,19.20
2022-12-18T02:03:45.905Z,14.82
2022-12-18T02:07:09.569Z,14.23
2022-12-18T02:10:31.475Z,8.03
2022-12-18T02:13:52.892Z,5.27
2022-12-18T02:17:12.836Z,8.80
2022-12-18T02:20:20.073Z,15.40
2022-12-18T02:23:54.054Z,5.77
2022-12-18T02:27:08.217Z,14.43
2022-12-18T02:30:12.487Z,13.57
2022-12-18T02:33:16.980Z,14.82
2022-12-18T02:36:22.687Z,16.60
2022-12-18T02:39:28.692Z,93.50
2022-12-18T02:42:37.255Z,44.13
2022-12-18T02:45:58.559Z,36.97
2022-12-18T02:49:21.236Z,39.60
2022-12-18T02:52:36.823Z,31.30
2022-12-18T02:56:09.575Z,32.23
2022-12-18T02:59:25.045Z,20.95
2022-12-18T03:02:48.162Z,32.72
2022-12-18T03:06:06.415Z,41.83
2022-12-18T03:09:12.922Z,37.38
2022-12-18T03:12:26.448Z,43.17
2022-12-18T03:15:55.068Z,38.65
2022-12-18T03:19:03.362Z,62.25
2022-12-18T03:22:10.617Z,110.47
2022-12-18T03:25:27.507Z,44.50
2022-12-18T03:28:33.643Z,47.38
2022-12-18T03:31:43.514Z,55.10
2022-12-18T03:34:51.531Z,49.67
2022-12-18T03:37:57.843Z,61.88
2022-12-18T03:41:33.442Z,63.85
2022-12-18T03:45:03.744Z,42.15
2022-12-18T03:48:19.072Z,65.85
2022-12-18T03:51:46.031Z,49.95
2022-12-18T03:54:49.967Z,60.60
2022-12-18T03:57:55.165Z,104.47
2022-12-18T04:01:04.028Z,72.80
2022-12-18T04:04:10.448Z,97.72
2022-12-18T04:07:18.957Z,71.20
2022-12-18T04:10:22.658Z,118.00
2022-12-18T04:13:30.347Z,103.30
2022-12-18T04:16:35.886Z,103.75
2022-12-18T04:19:41.529Z,87.57
2022-12-18T04:22:45.323Z,90.40
2022-12-18T04:25:50.186Z,83.35
2022-12-18T04:29:03.661Z,88.13
2022-12-18T04:32:07.259Z,89.57
2022-12-18T04:35:12.242Z,83.05
2022-12-18T04:38:18.992Z,87.22
2022-12-18T04:41:26.008Z,95.43
2022-12-18T04:44:30.241Z,71.72
2022-12-18T04:47:33.450Z,42.07
2022-12-18T04:50:36.592Z,52.88
2022-12-18T04:53:39.899Z,42.33
2022-12-18T04:56:43.730Z,68.22
2022-12-18T04:59:46.889Z,44.15
2022-12-18T05:02:50.149Z,24.33
2022-12-18T05:05:53.662Z,59.25
2022-12-18T05:08:56.923Z,50.05
2022-12-18T05:11:59.997Z,56.50
2022-12-18T05:15:03.090Z,54.63
2022-12-18T05:18:06.295Z,78.95
2022-12-18T05:21:09.543Z,107.40
2022-12-18T05:24:13.183Z,88.80
2022-12-18T05:27:16.469Z,92.30
2022-12-18T05:30:19.765Z,56.17
2022-12-18T05:33:24.285Z,54.77
2022-12-18T05:36:27.403Z,78.35
2022-12-18T05:39:30.648Z,61.50
2022-12-18T05:42:33.654Z,90.47
2022-12-18T05:45:39.924Z,65.43
2022-12-18T05:48:44.206Z,91.63
2022-12-18T05:51:47.580Z,60.60
2022-12-18T05:54:50.719Z,83.18
2022-12-18T05:57:53.839Z,66.20
2022-12-18T06:00:56.894Z,67.80
2022-12-18T06:04:00.577Z,55.25
2022-12-18T06:07:03.864Z,40.67
2022-12-18T06:10:07.786Z,61.15
2022-12-18T06:13:10.999Z,48.13
2022-12-18T06:16:14.477Z,41.22
2022-12-18T06:19:18.404Z,45.65
2022-12-18T06:22:21.534Z,77.30
2022-12-18T06:25:24.654Z,75.50
2022-12-18T06:28:27.743Z,50.00
2022-12-18T06:31:30.897Z,59.03
2022-12-18T06:34:34.503Z,57.17
2022-12-18T06:37:37.577Z,60.05
2022-12-18T06:40:41.107Z,61.15
2022-12-18T06:43:44.746Z,39.90
2022-12-18T06:46:48.068Z,88.80
2022-12-18T06:49:51.485Z,51.53
2022-12-18T06:52:54.583Z,78.43
2022-12-18T06:56:09.808Z,80.63
2022-12-18T06:59:16.126Z,77.82
2022-12-18T07:02:19.533Z,84.10
2022-12-18T07:05:22.745Z,82.90
2022-12-18T07:08:26.282Z,59.25
2022-12-18T07:11:29.291Z,46.55
2022-12-18T07:14:32.399Z,83.80
2022-12-18T07:17:35.551Z,67.07
2022-12-18T07:20:38.785Z,80.35
2022-12-18T07:23:42.201Z,66.57
2022-12-18T07:26:48.351Z,69.78
2022-12-18T07:29:51.576Z,59.65
2022-12-18T07:32:54.756Z,50.87
2022-12-18T07:35:57.911Z,54.17
2022-12-18T07:39:01.091Z,77.80
2022-12-18T07:42:22.876Z,66.87
2022-12-18T07:45:26.337Z,45.80
2022-12-18T07:48:30.640Z,61.58
2022-12-18T07:51:33.787Z,52.78
2022-12-18T07:54:37.068Z,60.50
2022-12-18T07:58:00.713Z,52.93
2022-12-18T08:01:12.733Z,46.55
2022-12-18T08:04:16.258Z,35.50
2022-12-18T08:07:19.549Z,56.63
2022-12-18T08:10:22.927Z,92.50
2022-12-18T08:13:26.528Z,138.98
2022-12-18T08:16:29.765Z,108.63
2022-12-18T08:19:32.997Z,143.05
2022-12-18T08:22:40.615Z,103.72
2022-12-18T08:25:43.722Z,55.90
2022-12-18T08:28:47.352Z,59.63
2022-12-18T08:31:51.521Z,57.37
2022-12-18T09:22:47.679Z,32.60
2022-12-18T09:25:50.943Z,38.55
2022-12-18T09:28:54.822Z,21.70
2022-12-18T09:31:58.151Z,24.80
2022-12-18T09:35:01.354Z,34.15
2022-12-18T09:38:04.476Z,18.58
2022-12-18T09:41:18.098Z,22.38
2022-12-18T09:44:43.075Z,30.05
2022-12-18T09:47:50.817Z,41.57
2022-12-18T09:51:01.564Z,16.67
2022-12-18T09:54:13.648Z,20.70
2022-12-18T09:57:20.624Z,27.87
2022-12-18T10:00:26.646Z,32.53
2022-12-18T10:03:29.922Z,45.60
2022-12-18T10:06:38.833Z,33.67
2022-12-18T10:10:07.395Z,30.30
2022-12-18T10:13:31.973Z,40.27
2022-12-18T10:19:51.165Z,25.33
2022-12-18T10:23:02.269Z,14.05
2022-12-18T10:26:08.363Z,37.07
2022-12-18T10:29:16.134Z,33.10
2022-12-18T10:32:27.823Z,30.00
2022-12-18T10:35:31.067Z,37.30
2022-12-18T10:38:34.650Z,23.10
2022-12-18T10:41:38.048Z,27.70
2022-12-18T10:44:41.064Z,37.40
2022-12-18T10:47:46.955Z,26.23
2022-12-18T10:54:23.822Z,25.93
2022-12-18T10:57:37.665Z,27.97
2022-12-18T11:00:41.214Z,32.78
2022-12-18T11:04:02.490Z,38.63
2022-12-18T11:07:08.510Z,53.20
2022-12-18T11:10:20.692Z,37.43
2022-12-18T11:13:28.811Z,37.57
2022-12-18T11:16:38.301Z,138.00
2022-12-18T11:19:43.368Z,75.07
2022-12-18T11:22:58.692Z,25.70
2022-12-18T11:26:04.773Z,31.13
2022-12-18T11:29:18.881Z,27.13
2022-12-18T11:32:34.023Z,23.00
2022-12-18T11:38:45.567Z,20.73
2022-12-18T11:42:19.124Z,11.73
2022-12-18T11:45:38.169Z,35.57
2022-12-18T11:48:46.741Z,46.87
2022-12-18T11:52:15.855Z,33.43
2022-12-18T11:55:24.946Z,59.80
2022-12-18T11:58:50.018Z,24.60
2022-12-18T12:01:58.351Z,28.13
2022-12-18T12:05:42.851Z,24.20
2022-12-18T12:09:03.327Z,24.67
2022-12-18T12:12:49.112Z,41.70
2022-12-18T12:16:20.668Z,18.90
2022-12-18T12:19:32.696Z,23.73
2022-12-18T12:22:45.014Z,23.00
2022-12-18T12:25:59.599Z,44.05
2022-12-18T12:29:06.921Z,37.42
2022-12-18T12:32:41.439Z,25.47
2022-12-18T12:36:06.188Z,19.50
2022-12-18T12:39:14.437Z,44.07
2022-12-18T12:42:47.024Z,35.97
2022-12-18T12:46:06.087Z,23.47
2022-12-18T12:49:27.566Z,21.23
2022-12-18T12:52:30.730Z,10.63
2022-12-18T12:55:35.816Z,34.53
2022-12-18T12:59:23.533Z,39.83
2022-12-18T13:03:29.680Z,29.07
2022-12-18T13:06:44.844Z,42.67
2022-12-18T13:10:21.352Z,37.53
2022-12-18T13:13:25.869Z,43.17
2022-12-18T13:16:29.165Z,35.67
2022-12-18T13:19:33.512Z,16.38
2022-12-18T13:22:38.609Z,15.70
2022-12-18T13:25:42.179Z,43.77
2022-12-18T13:28:48.678Z,65.32
2022-12-18T13:31:51.799Z,27.50
2022-12-18T13:35:19.930Z,19.10
2022-12-18T13:38:39.680Z,16.87
2022-12-18T13:41:44.156Z,29.70
2022-12-18T13:44:48.787Z,29.33
2022-12-18T13:47:52.157Z,38.07
2022-12-18T13:51:19.429Z,36.47
2022-12-18T13:54:41.733Z,58.83
2022-12-18T13:57:45.580Z,47.10
2022-12-18T14:00:50.721Z,51.00
2022-12-18T14:04:11.856Z,42.47
2022-12-18T14:07:24.791Z,44.37
2022-12-18T14:10:48.285Z,11.85
2022-12-18T14:13:52.330Z,22.70
2022-12-18T14:16:55.822Z,38.53
2022-12-18T14:19:59.862Z,53.25
2022-12-18T14:23:03.017Z,25.93
2022-12-18T14:26:32.460Z,23.02
2022-12-18T14:29:36.894Z,16.30
2022-12-18T14:32:40.080Z,24.30
2022-12-18T14:35:55.747Z,21.05
2022-12-18T14:39:00.859Z,24.33
2022-12-18T14:42:04.067Z,12.77
2022-12-18T14:45:41.394Z,25.50
2022-12-18T14:48:49.822Z,24.37
2022-12-18T14:52:04.937Z,16.37
2022-12-18T14:55:17.691Z,26.40
2022-12-18T14:58:21.131Z,20.17
2022-12-18T15:01:28.108Z,14.98
2022-12-18T15:04:42.474Z,27.73
2022-12-18T15:07:59.333Z,44.30
2022-12-18T15:11:02.631Z,80.50
2022-12-18T15:14:44.742Z,41.63
2022-12-18T15:17:47.946Z,78.03
2022-12-18T15:21:11.293Z,84.90
2022-12-18T15:24:26.264Z,98.33
2022-12-18T15:27:37.288Z,105.70
2022-12-18T15:30:40.606Z,60.10
2022-12-18T15:33:50.773Z,90.25
2022-12-18T15:36:54.020Z,41.47
2022-12-18T15:39:57.126Z,52.70
2022-12-18T15:43:18.906Z,42.90
2022-12-18T15:46:26.302Z,50.43
2022-12-18T15:49:29.481Z,47.83
2022-12-18T15:52:47.537Z,16.10
2022-12-18T15:56:09.517Z,61.60
2022-12-18T15:59:16.647Z,49.83
2022-12-18T16:02:21.007Z,69.13
2022-12-18T16:05:25.582Z,177.83
2022-12-18T16:08:30.365Z,132.53
2022-12-18T16:11:44.348Z,117.57
2022-12-18T16:17:50.767Z,70.10
2022-12-18T16:20:54.573Z,91.03
2022-12-18T16:27:02.355Z,106.22
2022-12-18T16:30:05.919Z,50.55
2022-12-18T16:33:12.120Z,52.90
2022-12-18T16:36:15.408Z,39.43
2022-12-18T16:39:19.247Z,44.75
2022-12-18T16:45:25.225Z,16.90
2022-12-18T16:48:28.413Z,8.93
2022-12-18T16:51:36.747Z,26.63
2022-12-18T16:54:39.886Z,25.63
2022-12-18T16:57:43.065Z,19.63
2022-12-18T17:00:46.094Z,18.50
2022-12-18T17:04:04.306Z,26.17
2022-12-18T17:07:07.459Z,10.53
2022-12-18T17:10:10.885Z,55.03
2022-12-18T17:13:13.899Z,21.33
2022-12-18T17:16:18.191Z,13.00
2022-12-18T17:19:22.203Z,25.63
2022-12-18T17:22:25.428Z,41.77
2022-12-18T17:25:28.440Z,36.38
2022-12-18T17:28:31.942Z,32.45
2022-12-18T17:31:35.973Z,55.22
2022-12-18T17:34:39.295Z,94.20
2022-12-18T17:37:42.383Z,53.03
2022-12-18T17:40:46.590Z,70.47
2022-12-18T17:44:01.335Z,77.57
2022-12-18T17:47:04.507Z,87.00
2022-12-18T17:50:08.168Z,18.80
2022-12-18T17:56:15.844Z,16.93
2022-12-18T17:59:18.849Z,14.43
2022-12-18T18:02:22.104Z,6.63
2022-12-18T18:05:26.298Z,5.17
2022-12-18T18:08:30.074Z,4.05
2022-12-18T18:11:51.772Z,11.13
2022-12-18T18:14:56.395Z,12.60
2022-12-18T18:18:01.845Z,3.47
2022-12-18T18:21:06.851Z,11.43
2022-12-18T18:24:13.301Z,51.83
2022-12-18T18:27:16.908Z,44.50
2022-12-18T18:33:23.185Z,19.23
2022-12-18T18:36:26.284Z,21.50
2022-12-18T18:39:30.479Z,17.25
2022-12-18T18:42:33.502Z,14.00
2022-12-18T18:45:36.623Z,15.88
2022-12-18T18:48:42.482Z,16.60
2022-12-18T18:51:46.843Z,33.63
2022-12-18T18:55:11.516Z,6.57
2022-12-18T18:58:13.100Z,20.00
2022-12-18T19:01:18.706Z,6.68
2022-12-18T19:04:21.884Z,9.47
2022-12-18T19:07:30.492Z,29.60
2022-12-18T19:10:34.228Z,19.40
2022-12-18T19:13:37.249Z,22.70
2022-12-18T19:16:41.527Z,39.75
2022-12-18T19:19:44.710Z,10.77
2022-12-18T19:22:55.090Z,24.02
2022-12-18T19:26:27.842Z,14.53
2022-12-18T19:29:25.762Z,33.93
2022-12-18T19:32:28.969Z,21.48
2022-12-18T19:35:32.308Z,22.05
2022-12-18T19:38:36.153Z,18.83
2022-12-18T19:41:39.758Z,20.73
2022-12-18T19:44:42.959Z,26.13
2022-12-18T19:47:47.185Z,31.73
2022-12-18T19:50:50.252Z,28.60
2022-12-18T19:53:58.462Z,36.58
2022-12-18T19:57:03.182Z,10.87
2022-12-18T20:03:25.193Z,12.67
2022-12-18T20:06:34.829Z,7.07
2022-12-18T20:09:37.999Z,5.53
2022-12-18T20:15:45.498Z,21.00
2022-12-18T20:18:49.885Z,15.37
2022-12-18T20:21:53.293Z,19.27
2022-12-18T20:24:56.587Z,28.33
2022-12-18T20:27:59.885Z,20.95
2022-12-18T20:31:05.280Z,7.43
2022-12-18T20:34:09.063Z,4.47
2022-12-18T20:37:12.570Z,24.55
2022-12-18T20:43:18.923Z,31.67
2022-12-18T20:46:22.157Z,20.23
2022-12-18T20:49:26.557Z,31.80
2022-12-18T20:52:29.671Z,35.90
2022-12-18T20:55:32.754Z,16.95
2022-12-18T20:58:36.661Z,29.90
2022-12-18T21:01:45.291Z,12.93
2022-12-18T21:04:52.084Z,24.63
2022-12-18T21:07:55.079Z,2.85
2022-12-18T21:11:31.938Z,8.38
2022-12-18T21:14:35.661Z,5.73
2022-12-18T21:17:44.591Z,28.63
2022-12-18T21:20:48.117Z,5.50
2022-12-18T21:23:51.755Z,41.15
2022-12-18T21:26:55.048Z,11.30
2022-12-18T21:29:58.206Z,12.35
2022-12-18T21:33:01.288Z,6.30
2022-12-18T21:36:08.716Z,12.98
2022-12-18T21:39:11.811Z,8.80
2022-12-18T21:42:33.407Z,21.45
2022-12-18T21:45:36.419Z,31.20
2022-12-18T21:48:44.002Z,14.85
2022-12-18T21:51:47.238Z,6.63
2022-12-18T21:54:50.308Z,8.07
2022-12-18T21:57:54.968Z,8.35
2022-12-18T22:00:58.300Z,10.17
2022-12-18T22:04:01.521Z,8.65
2022-12-18T22:07:05.901Z,17.77
2022-12-18T22:10:09.743Z,10.90
2022-12-18T22:13:12.840Z,15.90
2022-12-18T22:16:15.970Z,51.38
2022-12-18T22:19:20.235Z,28.45
2022-12-18T22:22:23.548Z,63.27
2022-12-18T22:25:26.683Z,41.85
2022-12-18T22:28:51.325Z,36.47
2022-12-18T22:31:54.426Z,33.87
2022-12-18T22:35:01.722Z,54.33
2022-12-18T22:38:08.394Z,71.80
2022-12-18T22:41:11.554Z,35.08
2022-12-18T22:44:15.211Z,64.32
2022-12-18T22:47:24.249Z,21.00
2022-12-18T22:50:29.728Z,27.50
2022-12-18T22:53:32.892Z,8.57
2022-12-18T22:56:36.029Z,11.38
2022-12-18T22:59:39.073Z,13.93
2022-12-18T23:02:42.324Z,68.25
2022-12-18T23:05:45.703Z,41.83
2022-12-18T23:08:54.391Z,36.08
2022-12-18T23:11:59.072Z,84.83
2022-12-18T23:15:02.208Z,15.48
2022-12-18T23:18:05.467Z,97.43
2022-12-18T23:21:16.879Z,25.45
2022-12-18T23:24:20.351Z,29.13
2022-12-18T23:27:23.443Z,118.53
2022-12-18T23:30:26.592Z,30.02
2022-12-18T23:33:29.853Z,36.75
2022-12-18T23:39:47.012Z,31.48
2022-12-18T23:42:50.068Z,66.10
2022-12-18T23:45:55.756Z,47.22
2022-12-18T23:49:00.374Z,18.60
2022-12-18T23:52:03.444Z,11.73
2022-12-18T23:55:07.100Z,9.27
2022-12-18T23:58:18.711Z,18.63
